Time;durP1;ratioP1;P1;durP2;ratioP2;P2;SDS_P1;SDS_P2;PMS_P1;PMS_P2;Temp;Humidity;BMP_temperature;BMP_pressure;BME280_temperature;BME280_humidity;BME280_pressure;Samples;Min_cycle;Max_cycle;Signal;HPM_P1;HPM_P2
2022/01/10 00:01:42;;;;;;;17.92;7.78;;;;;;;-3.62;66.20;99745.06;6084293;23;20041;-75
2022/01/10 00:04:07;;;;;;;18.77;7.80;;;;;;;-3.29;66.43;99774.56;6086242;23;20065;-76
2022/01/10 00:06:35;;;;;;;16.80;7.38;;;;;;;-3.25;66.06;99771.38;6121422;23;20026;-77
2022/01/10 00:09:01;;;;;;;16.25;7.53;;;;;;;-3.74;65.65;99707.19;6120703;23;20014;-77
2022/01/10 00:11:26;;;;;;;17.42;7.40;;;;;;;-3.34;66.01;99762.50;6097091;23;20018;-75
2022/01/10 00:13:52;;;;;;;16.38;7.35;;;;;;;-3.13;66.40;99768.50;6122186;23;20023;-78
2022/01/10 00:16:18;;;;;;;16.00;7.20;;;;;;;-3.10;66.11;99749.13;6120118;23;20066;-75
2022/01/10 00:18:44;;;;;;;17.75;7.65;;;;;;;-3.11;65.79;99762.66;6067020;23;20018;-77
2022/01/10 00:21:10;;;;;;;16.17;7.70;;;;;;;-3.17;65.55;99764.94;6102907;23;20041;-79
2022/01/10 00:23:36;;;;;;;15.85;7.20;;;;;;;-3.22;65.89;99756.22;6094140;23;20019;-79
2022/01/10 00:26:02;;;;;;;16.92;7.43;;;;;;;-3.17;65.80;99764.94;6094990;23;20042;-79
2022/01/10 00:28:28;;;;;;;16.23;7.78;;;;;;;-3.13;66.39;99750.69;6097102;23;20018;-79
2022/01/10 00:30:54;;;;;;;15.25;7.10;;;;;;;-3.08;65.95;99750.09;6097913;23;20018;-76
2022/01/10 00:33:20;;;;;;;15.35;7.10;;;;;;;-3.11;65.01;99756.72;6076387;23;20057;-77
2022/01/10 00:35:47;;;;;;;14.27;6.90;;;;;;;-3.05;65.04;99757.88;6108346;23;20112;-79
2022/01/10 00:38:12;;;;;;;14.05;6.68;;;;;;;-3.10;65.81;99755.94;6070906;23;20014;-77
2022/01/10 00:40:40;;;;;;;15.18;7.13;;;;;;;-3.26;65.38;99742.47;6069530;23;20050;-77
2022/01/10 00:43:08;;;;;;;13.85;6.40;;;;;;;-3.32;65.60;99724.41;6093735;23;20022;-78
2022/01/10 00:45:34;;;;;;;14.50;6.68;;;;;;;-3.09;65.06;99765.31;6095200;23;20022;-76
2022/01/10 00:48:00;;;;;;;14.35;7.07;;;;;;;-3.00;65.85;99758.06;6093791;23;20018;-80
2022/01/10 00:50:28;;;;;;;15.45;7.78;;;;;;;-3.09;66.00;99725.44;6069983;23;20341;-77
2022/01/10 00:52:55;;;;;;;16.30;8.32;;;;;;;-2.96;65.78;99741.25;6059763;23;20023;-77
2022/01/10 00:55:21;;;;;;;17.05;8.77;;;;;;;-2.82;65.85;99763.13;6104760;23;20074;-77
2022/01/10 00:57:47;;;;;;;16.42;8.48;;;;;;;-2.78;65.18;99752.28;6069140;23;20053;-75
2022/01/10 01:00:15;;;;;;;15.77;6.93;;;;;;;-2.75;65.46;99754.06;6094160;23;20018;-78
2022/01/10 01:02:41;;;;;;;12.70;6.70;;;;;;;-2.76;64.86;99747.22;6094723;23;20038;-78
2022/01/10 01:05:11;;;;;;;14.60;6.63;;;;;;;-2.74;65.28;99759.22;6069549;23;20464;-77
2022/01/10 01:07:38;;;;;;;17.85;6.90;;;;;;;-2.66;65.49;99758.69;6095438;23;20018;-81
2022/01/10 01:15:23;;;;;;;11.52;5.97;;;;;;;-2.74;64.51;99745.63;6070328;23;20041;-78
2022/01/10 01:25:55;;;;;;;15.63;6.30;;;;;;;-2.53;65.46;99735.47;6076470;23;20081;-76
2022/01/10 01:28:21;;;;;;;17.52;6.57;;;;;;;-2.60;65.06;99736.88;6098298;23;20093;-76
2022/01/10 01:30:47;;;;;;;15.80;7.45;;;;;;;-2.65;65.22;99730.75;6070248;23;20022;-74
2022/01/10 01:33:14;;;;;;;15.38;6.13;;;;;;;-2.73;63.39;99732.94;6093898;23;20041;-76
2022/01/10 01:35:41;;;;;;;15.50;6.95;;;;;;;-3.07;64.93;99716.19;6069048;23;20022;-75
2022/01/10 01:38:08;;;;;;;16.02;7.35;;;;;;;-2.93;65.33;99733.75;6068660;23;20097;-77
2022/01/10 01:40:40;;;;;;;15.35;7.38;;;;;;;-2.86;65.16;99733.22;6068236;23;20029;-77
2022/01/10 01:43:06;;;;;;;15.25;6.65;;;;;;;-2.83;65.40;99720.63;6091629;23;20022;-77
2022/01/10 01:45:47;;;;;;;12.23;6.50;;;;;;;-2.70;65.42;99723.69;6068385;23;20018;-78
2022/01/10 01:48:13;;;;;;;13.32;6.22;;;;;;;-2.77;64.97;99730.19;6092022;23;20026;-78
2022/01/10 01:50:40;;;;;;;14.35;6.07;;;;;;;-2.70;65.28;99729.66;6092475;23;20022;-77
2022/01/10 01:53:07;;;;;;;14.52;6.13;;;;;;;-2.97;65.16;99686.00;6093084;23;20025;-76
2022/01/10 01:55:33;;;;;;;11.30;5.90;;;;;;;-2.68;64.96;99722.97;6068345;23;20026;-75
2022/01/10 01:57:59;;;;;;;13.63;5.93;;;;;;;-2.62;64.94;99725.75;6092663;23;20101;-76
2022/01/10 02:00:26;;;;;;;10.10;5.30;;;;;;;-2.66;65.00;99707.72;6069236;23;20050;-74
2022/01/10 02:02:54;;;;;;;17.27;6.00;;;;;;;-2.62;65.42;99705.38;6102940;23;20125;-77
2022/01/10 02:05:22;;;;;;;13.18;5.88;;;;;;;-2.48;64.84;99721.25;6086581;23;20380;-76
2022/01/10 02:07:48;;;;;;;14.77;6.10;;;;;;;-2.97;64.08;99686.00;6071260;23;20018;-79
2022/01/10 02:10:16;;;;;;;13.50;6.40;;;;;;;-3.29;65.04;99673.59;6070388;23;20038;-78
2022/01/10 02:12:43;;;;;;;12.95;5.88;;;;;;;-3.04;64.95;99706.13;6071345;23;20085;-76
2022/01/10 02:15:31;;;;;;;15.27;5.97;;;;;;;-2.87;65.15;99704.31;6095987;23;20078;-78
2022/01/10 02:18:00;;;;;;;12.00;6.00;;;;;;;-2.96;64.93;99718.31;6095113;23;20473;-77
2022/01/10 02:20:32;;;;;;;12.93;6.10;;;;;;;-2.92;65.45;99710.00;6094373;23;20417;-76
2022/01/10 02:22:58;;;;;;;11.00;6.10;;;;;;;-2.79;65.94;99697.03;6094407;23;20516;-76
2022/01/10 02:25:39;;;;;;;13.70;6.22;;;;;;;-2.73;65.22;99701.50;6070773;23;20025;-74
2022/01/10 02:28:05;;;;;;;12.05;5.53;;;;;;;-2.53;65.11;99720.19;6094796;23;20076;-74
2022/01/10 02:30:31;;;;;;;13.93;6.05;;;;;;;-2.49;64.89;99727.16;6070779;23;20149;-77
2022/01/10 02:33:00;;;;;;;19.83;8.35;;;;;;;-2.43;65.46;99724.03;6071543;23;20033;-77
2022/01/10 02:35:34;;;;;;;15.70;7.13;;;;;;;-2.44;64.12;99719.72;6071380;23;20026;-77
2022/01/10 02:38:01;;;;;;;13.35;6.15;;;;;;;-2.49;64.84;99726.28;6104581;23;20018;-77
2022/01/10 02:40:29;;;;;;;14.70;6.32;;;;;;;-2.52;65.08;99721.06;6112871;23;20070;-77
2022/01/10 02:42:56;;;;;;;17.52;6.72;;;;;;;-2.75;65.20;99655.56;6111898;23;20033;-75
2022/01/10 02:45:22;;;;;;;12.02;5.60;;;;;;;-2.37;64.79;99715.75;6084743;23;20051;-76
2022/01/10 02:47:48;;;;;;;13.18;6.13;;;;;;;-2.37;65.07;99713.19;6087973;23;20038;-79
2022/01/10 02:50:16;;;;;;;12.32;6.32;;;;;;;-2.40;65.38;99707.97;6087402;23;20018;-77
2022/01/10 02:52:43;;;;;;;12.25;6.90;;;;;;;-2.35;65.29;99714.13;6084824;23;20014;-77
2022/01/10 02:55:11;;;;;;;17.40;6.70;;;;;;;-2.32;65.22;99701.53;6082427;23;20046;-76
2022/01/10 02:57:38;;;;;;;12.68;6.03;;;;;;;-2.25;64.98;99708.59;6083377;23;20074;-78
2022/01/10 03:00:10;;;;;;;13.30;6.03;;;;;;;-2.27;65.16;99700.91;6112448;23;20025;-76
2022/01/10 03:02:36;;;;;;;14.25;6.70;;;;;;;-2.36;64.73;99695.41;6092935;23;20018;-77
2022/01/10 03:05:06;;;;;;;11.85;5.95;;;;;;;-2.35;64.54;99711.59;6116304;23;20074;-77
2022/01/10 03:07:33;;;;;;;13.15;6.43;;;;;;;-2.35;65.07;99709.03;6090921;23;20050;-76
2022/01/10 03:09:59;;;;;;;16.80;8.52;;;;;;;-2.47;64.97;99691.56;6116700;23;20029;-76
2022/01/10 03:12:26;;;;;;;31.55;13.93;;;;;;;-2.25;65.07;99717.94;6094308;23;19999;-76
2022/01/10 03:14:51;;;;;;;62.13;23.70;;;;;;;-2.24;64.52;99719.69;6120375;23;20058;-77
2022/01/10 03:17:17;;;;;;;71.68;26.35;;;;;;;-2.48;64.55;99683.03;6110202;23;20018;-75
2022/01/10 03:19:44;;;;;;;67.50;26.27;;;;;;;-2.29;64.71;99710.16;6088638;23;20014;-75
2022/01/10 03:22:10;;;;;;;44.78;18.42;;;;;;;-2.42;64.75;99720.63;6107779;23;20018;-76
2022/01/10 03:24:37;;;;;;;25.55;12.35;;;;;;;-2.37;64.69;99729.34;6082059;23;20032;-78
2022/01/10 03:27:03;;;;;;;18.83;8.70;;;;;;;-2.38;64.40;99716.56;6108986;23;20022;-73
2022/01/10 03:29:29;;;;;;;16.10;7.78;;;;;;;-2.38;64.76;99729.31;6082807;23;20026;-77
2022/01/10 03:31:55;;;;;;;12.25;5.43;;;;;;;-2.32;64.79;99740.63;6100448;23;20018;-77
2022/01/10 03:34:22;;;;;;;13.63;6.30;;;;;;;-2.32;64.47;99739.75;6114220;23;20069;-75
2022/01/10 03:36:48;;;;;;;32.08;14.07;;;;;;;-2.27;65.26;99748.44;6110806;23;20022;-77
2022/01/10 03:39:15;;;;;;;29.95;15.57;;;;;;;-2.46;64.99;99732.38;6099164;23;20385;-77
2022/01/10 03:41:41;;;;;;;29.55;14.05;;;;;;;-2.54;64.50;99723.56;6052670;23;20037;-80
2022/01/10 03:44:08;;;;;;;20.63;11.27;;;;;;;-2.60;64.36;99713.09;6075342;23;20038;-77
2022/01/10 03:46:34;;;;;;;16.80;8.68;;;;;;;-2.35;65.01;99754.94;6075547;23;20022;-79
2022/01/10 03:49:04;;;;;;;10.55;6.18;;;;;;;-2.40;64.78;99746.19;6099485;23;20104;-79
2022/01/10 03:51:31;;;;;;;12.40;5.60;;;;;;;-2.57;64.60;99709.00;6074595;23;20062;-77
2022/01/10 03:53:56;;;;;;;11.95;5.00;;;;;;;-2.35;64.56;99742.19;6049719;23;20019;-78
2022/01/10 03:56:26;;;;;;;11.02;5.28;;;;;;;-2.54;64.55;99709.94;6097993;23;20022;-77
2022/01/10 03:58:52;;;;;;;11.10;4.80;;;;;;;-2.42;64.84;99734.25;6109826;23;20022;-77
2022/01/10 04:01:19;;;;;;;10.65;5.20;;;;;;;-2.45;64.47;99729.03;6105167;23;20025;-78
2022/01/10 04:03:48;;;;;;;12.15;4.95;;;;;;;-2.54;63.98;99738.84;6105548;23;20419;-78
2022/01/10 04:06:14;;;;;;;8.77;4.68;;;;;;;-2.54;64.58;99723.56;6100609;23;20023;-78
2022/01/10 04:08:41;;;;;;;12.68;5.10;;;;;;;-2.47;64.82;99723.00;6097109;23;20045;-77
2022/01/10 04:11:08;;;;;;;11.40;4.88;;;;;;;-2.45;64.50;99730.72;6097549;23;20045;-80
2022/01/10 04:13:35;;;;;;;8.77;4.60;;;;;;;-2.44;64.57;99733.31;6074563;23;20018;-79
2022/01/10 04:16:01;;;;;;;11.30;5.65;;;;;;;-2.51;64.56;99722.81;6101641;23;20464;-76
2022/01/10 04:18:27;;;;;;;9.65;5.00;;;;;;;-2.43;64.97;99731.66;6114481;23;20040;-80
2022/01/10 04:20:53;;;;;;;10.32;4.95;;;;;;;-2.40;64.67;99736.00;6102063;23;20023;-77
2022/01/10 04:23:20;;;;;;;9.80;4.35;;;;;;;-2.36;64.20;99755.72;6103095;23;20025;-77
2022/01/10 04:25:46;;;;;;;10.70;5.20;;;;;;;-2.68;64.30;99715.31;6091244;23;20018;-75
2022/01/10 04:28:13;;;;;;;10.50;5.38;;;;;;;-2.43;64.37;99747.81;6106269;23;20086;-78
2022/01/10 04:30:40;;;;;;;15.35;6.10;;;;;;;-2.43;64.76;99731.66;6103629;23;20026;-76
2022/01/10 04:33:05;;;;;;;17.00;8.00;;;;;;;-2.38;64.06;99758.19;6070122;23;20018;-77
2022/01/10 04:35:32;;;;;;;12.80;6.63;;;;;;;-2.40;64.79;99758.94;6094927;23;20160;-77
2022/01/10 04:37:58;;;;;;;9.20;5.45;;;;;;;-2.47;64.70;99738.28;6097647;23;20113;-78
2022/01/10 04:40:25;;;;;;;7.93;4.72;;;;;;;-2.35;64.32;99747.28;6096399;23;20018;-77
2022/01/10 04:42:53;;;;;;;8.63;4.35;;;;;;;-2.34;64.10;99764.31;6072600;23;20025;-79
2022/01/10 04:45:19;;;;;;;9.80;4.47;;;;;;;-2.40;64.42;99756.41;6114755;23;20024;-76
2022/01/10 04:47:44;;;;;;;7.40;4.00;;;;;;;-2.57;64.35;99718.34;6110640;23;20022;-78
2022/01/10 04:52:49;;;;;;;9.38;4.03;;;;;;;-2.30;64.34;99771.25;6074720;23;20018;-77
2022/01/10 04:55:17;;;;;;;9.88;4.32;;;;;;;-2.35;64.64;99762.56;6076173;23;20018;-76
2022/01/10 04:57:43;;;;;;;8.93;3.97;;;;;;;-2.42;63.75;99764.84;6098182;23;20030;-78
2022/01/10 05:00:12;;;;;;;9.18;4.22;;;;;;;-2.53;64.17;99737.16;6070354;23;20018;-74
2022/01/10 05:02:40;;;;;;;10.73;4.10;;;;;;;-2.48;63.86;99751.84;6093655;23;20105;-79
2022/01/10 05:05:06;;;;;;;10.35;4.38;;;;;;;-2.44;64.31;99758.81;6094598;23;20018;-77
2022/01/10 05:07:32;;;;;;;8.35;4.00;;;;;;;-2.33;63.94;99776.25;6094846;23;20018;-80
2022/01/10 05:09:58;;;;;;;8.65;3.83;;;;;;;-2.34;63.97;99784.72;6071496;23;20082;-77
2022/01/10 05:12:26;;;;;;;6.15;3.90;;;;;;;-2.46;64.16;99765.53;6046001;23;20101;-79
2022/01/10 05:14:53;;;;;;;6.65;3.55;;;;;;;-2.31;63.92;99792.47;6045952;23;20022;-78
2022/01/10 05:17:21;;;;;;;8.00;3.50;;;;;;;-2.32;64.18;99793.28;6070690;23;20098;-77
2022/01/10 05:19:47;;;;;;;9.48;4.13;;;;;;;-2.45;63.84;99774.06;6070514;23;20028;-76
2022/01/10 05:22:13;;;;;;;9.25;4.40;;;;;;;-2.41;64.18;99791.19;6094554;23;20361;-79
2022/01/10 05:24:39;;;;;;;7.40;3.85;;;;;;;-2.61;64.09;99782.69;6094449;23;20105;-80
2022/01/10 05:27:06;;;;;;;14.20;6.32;;;;;;;-2.68;63.43;99770.50;6071032;23;20022;-78
2022/01/10 05:29:33;;;;;;;17.10;8.85;;;;;;;-3.05;62.92;99762.06;6046458;23;20022;-75
2022/01/10 05:31:59;;;;;;;16.58;8.20;;;;;;;-2.95;64.07;99773.53;6094300;23;20025;-78
2022/01/10 05:34:47;;;;;;;20.60;10.43;;;;;;;-2.89;64.10;99794.19;6105875;23;20006;-78
2022/01/10 05:37:13;;;;;;;9.52;5.03;;;;;;;-2.90;64.06;99790.78;6108084;23;20038;-77
2022/01/10 05:39:39;;;;;;;9.40;4.53;;;;;;;-2.80;64.50;99803.94;6094408;23;20018;-75
2022/01/10 05:42:05;;;;;;;7.55;3.80;;;;;;;-2.94;64.53;99775.28;6076092;23;20022;-79
2022/01/10 05:44:34;;;;;;;5.70;3.42;;;;;;;-2.78;64.36;99781.94;6093169;23;20030;-76
2022/01/10 05:47:12;;;;;;;6.90;3.42;;;;;;;-2.84;64.42;99771.47;6070231;23;20025;-76
2022/01/10 05:49:47;;;;;;;9.32;3.80;;;;;;;-2.54;63.80;99824.59;6093075;23;20081;-79
2022/01/10 05:52:17;;;;;;;8.65;4.00;;;;;;;-2.65;64.03;99816.50;6070758;23;20127;-78
2022/01/10 05:54:48;;;;;;;7.90;4.00;;;;;;;-2.60;63.99;99820.97;6094954;23;20058;-81
2022/01/10 05:57:14;;;;;;;7.07;3.50;;;;;;;-2.52;63.94;99817.91;6096946;23;20069;-78
2022/01/10 05:59:46;;;;;;;6.45;3.53;;;;;;;-2.57;64.17;99808.38;6095921;23;20042;-80
2022/01/10 06:02:12;;;;;;;8.02;3.40;;;;;;;-2.55;64.13;99808.47;6071573;23;20022;-76
2022/01/10 06:04:39;;;;;;;6.57;3.72;;;;;;;-2.54;64.01;99807.66;6095525;23;20046;-77
2022/01/10 06:07:24;;;;;;;5.75;3.20;;;;;;;-2.51;63.59;99817.97;6076117;23;20026;-77
2022/01/10 06:09:50;;;;;;;5.28;3.00;;;;;;;-2.51;63.80;99805.22;6074398;23;20313;-80
2022/01/10 06:12:16;;;;;;;8.43;3.90;;;;;;;-2.59;64.21;99796.38;6082611;23;20018;-77
2022/01/10 06:14:41;;;;;;;7.88;3.15;;;;;;;-2.65;63.27;99807.19;6065694;23;20022;-80
2022/01/10 06:17:07;;;;;;;5.07;2.95;;;;;;;-2.57;64.11;99835.56;6083196;23;20041;-76
2022/01/10 06:19:33;;;;;;;4.95;2.70;;;;;;;-2.63;63.93;99833.56;6101864;23;20641;-81
2022/01/10 06:21:59;;;;;;;6.82;3.20;;;;;;;-2.59;63.81;99827.81;6075791;23;20022;-78
2022/01/10 06:24:27;;;;;;;6.40;3.28;;;;;;;-2.48;63.77;99842.72;6073115;23;20026;-77
2022/01/10 06:26:54;;;;;;;6.95;3.28;;;;;;;-2.41;64.55;99844.72;6097455;23;20456;-78
2022/01/10 06:29:21;;;;;;;6.82;3.00;;;;;;;-2.37;64.04;99844.06;6075714;23;20015;-75
2022/01/10 06:31:47;;;;;;;7.28;3.00;;;;;;;-2.44;64.02;99842.06;6098625;23;20022;-77
2022/01/10 06:34:18;;;;;;;6.25;3.10;;;;;;;-2.34;64.49;99853.53;6096960;23;20026;-77
2022/01/10 06:36:45;;;;;;;7.68;3.10;;;;;;;-2.34;64.18;99845.88;6071627;23;20081;-81
2022/01/10 06:39:12;;;;;;;8.27;3.63;;;;;;;-2.36;64.01;99840.69;6071247;23;20465;-76
2022/01/10 06:41:42;;;;;;;6.03;3.45;;;;;;;-2.63;63.98;99802.16;6096153;23;20102;-80
2022/01/10 06:44:07;;;;;;;5.88;3.20;;;;;;;-2.74;63.62;99819.50;6101599;23;20037;-79
2022/01/10 06:46:34;;;;;;;6.75;3.40;;;;;;;-2.90;64.17;99780.59;6116107;23;20022;-77
2022/01/10 06:49:01;;;;;;;5.13;2.78;;;;;;;-2.50;64.11;99841.78;6104507;23;20026;-79
2022/01/10 06:51:29;;;;;;;8.20;3.50;;;;;;;-2.38;64.15;99851.66;6102346;23;20022;-79
2022/01/10 06:53:55;;;;;;;8.13;3.75;;;;;;;-2.30;63.59;99848.63;6054215;23;20018;-80
2022/01/10 06:56:25;;;;;;;8.25;4.35;;;;;;;-2.34;64.32;99846.75;6078730;23;20022;-79
2022/01/10 06:58:54;;;;;;;7.30;3.70;;;;;;;-2.36;63.76;99825.41;6055525;23;20018;-80
2022/01/10 07:01:29;;;;;;;10.85;6.22;;;;;;;-2.40;63.68;99802.28;6052950;23;20032;-77
2022/01/10 07:04:01;;;;;;;8.07;4.13;;;;;;;-2.12;64.05;99845.13;6057684;23;20018;-79
2022/01/10 07:06:30;;;;;;;8.65;4.32;;;;;;;-2.17;62.95;99856.78;6103189;23;20345;-79
2022/01/10 07:09:01;;;;;;;7.45;3.88;;;;;;;-2.17;64.03;99856.78;6098807;23;20018;-78
2022/01/10 07:11:36;;;;;;;12.38;5.43;;;;;;;-2.21;64.11;99860.03;6096953;23;20022;-80
2022/01/10 07:14:05;;;;;;;10.88;4.85;;;;;;;-2.46;63.85;99811.41;6097515;23;20453;-81
2022/01/10 07:16:31;;;;;;;10.00;5.03;;;;;;;-2.49;63.80;99803.59;6074922;23;20603;-81
2022/01/10 07:19:02;;;;;;;10.05;5.05;;;;;;;-2.32;63.99;99837.50;6076074;23;20405;-79
2022/01/10 07:21:38;;;;;;;8.65;4.50;;;;;;;-2.68;64.62;99760.28;6098534;23;20054;-78
2022/01/10 07:24:06;;;;;;;9.82;4.47;;;;;;;-2.31;63.75;99833.25;6075672;23;20113;-79
2022/01/10 07:26:34;;;;;;;10.27;5.10;;;;;;;-2.21;63.92;99850.72;6102595;23;20257;-79
2022/01/10 07:29:02;;;;;;;10.98;5.25;;;;;;;-2.22;63.80;99864.25;6098567;23;20130;-77
2022/01/10 07:31:29;;;;;;;12.15;5.15;;;;;;;-2.28;63.51;99848.69;6075330;23;20364;-77
2022/01/10 07:33:56;;;;;;;11.23;4.88;;;;;;;-2.27;63.76;99858.97;6097014;23;20021;-78
2022/01/10 07:36:22;;;;;;;10.45;4.18;;;;;;;-2.24;64.29;99850.56;6098984;23;20018;-78
2022/01/10 07:38:50;;;;;;;9.38;4.53;;;;;;;-2.14;63.71;99856.94;6098827;23;20050;-80
2022/01/10 07:41:16;;;;;;;11.45;5.00;;;;;;;-2.00;63.90;99862.63;6051276;23;20023;-77
2022/01/10 07:43:43;;;;;;;9.05;4.20;;;;;;;-1.98;63.84;99869.53;6099487;23;20226;-79
2022/01/10 07:46:10;;;;;;;11.05;5.00;;;;;;;-2.08;63.27;99871.63;6049223;23;20050;-78
2022/01/10 07:48:39;;;;;;;13.85;5.50;;;;;;;-2.06;63.59;99867.47;6072958;23;20023;-79
2022/01/10 07:51:09;;;;;;;10.30;5.35;;;;;;;-2.33;63.08;99840.00;6099697;23;20719;-79
2022/01/10 07:53:36;;;;;;;12.40;5.53;;;;;;;-2.46;63.58;99829.22;6102681;23;20073;-81
2022/01/10 07:56:03;;;;;;;13.93;5.32;;;;;;;-2.20;63.95;99849.91;6112512;23;20046;-76
2022/01/10 07:58:30;;;;;;;13.38;5.47;;;;;;;-1.92;63.88;99874.06;6111960;23;20022;-76
2022/01/10 08:00:56;;;;;;;12.52;6.07;;;;;;;-2.14;63.90;99816.13;6074448;23;20044;-78
2022/01/10 08:03:22;;;;;;;9.00;5.20;;;;;;;-1.88;64.02;99857.19;6101167;23;20025;-80
2022/01/10 08:05:49;;;;;;;10.98;5.25;;;;;;;-2.06;62.72;99830.09;6082759;23;20022;-76
2022/01/10 08:08:15;;;;;;;8.98;5.00;;;;;;;-1.87;63.30;99867.44;6116426;23;19998;-78
2022/01/10 08:10:40;;;;;;;13.48;5.57;;;;;;;-1.73;63.57;99869.72;6086973;23;20025;-80
2022/01/10 08:13:06;;;;;;;11.48;5.05;;;;;;;-1.84;63.33;99846.31;6079406;23;20022;-79
2022/01/10 08:15:35;;;;;;;8.35;4.65;;;;;;;-2.16;63.33;99792.25;6085472;23;20022;-79
2022/01/10 08:18:02;;;;;;;7.88;4.72;;;;;;;-1.76;62.92;99857.69;6084677;23;20014;-77
2022/01/10 08:20:40;;;;;;;10.18;5.05;;;;;;;-2.59;63.45;99730.13;6080699;23;20022;-79
2022/01/10 08:23:06;;;;;;;9.07;5.35;;;;;;;-2.12;63.58;99800.13;6081342;23;20050;-79
2022/01/10 08:25:35;;;;;;;11.82;5.15;;;;;;;-2.95;62.79;99686.97;6078787;23;20084;-78
2022/01/10 08:28:03;;;;;;;8.82;4.97;;;;;;;-2.37;63.66;99764.19;6074870;23;20045;-78
2022/01/10 08:30:29;;;;;;;10.82;5.10;;;;;;;-1.80;63.80;99858.38;6097876;23;20022;-79
2022/01/10 08:32:55;;;;;;;7.47;4.00;;;;;;;-1.84;63.50;99846.31;6073912;23;20014;-78
2022/01/10 08:35:21;;;;;;;9.43;4.60;;;;;;;-1.54;63.27;99877.31;6100154;23;20453;-76
2022/01/10 08:37:47;;;;;;;10.45;5.25;;;;;;;-1.55;62.69;99877.28;6073391;23;20010;-78
2022/01/10 08:40:15;;;;;;;8.57;4.15;;;;;;;-1.59;63.18;99878.81;6071917;23;20026;-81
2022/01/10 08:42:41;;;;;;;10.80;4.57;;;;;;;-1.72;63.42;99858.72;6094902;23;20017;-80
2022/01/10 08:45:08;;;;;;;7.88;4.10;;;;;;;-1.57;62.70;99884.84;6097501;23;20468;-78
2022/01/10 08:47:35;;;;;;;8.68;4.50;;;;;;;-1.74;63.07;99850.09;6107604;23;20042;-79
2022/01/10 08:50:03;;;;;;;9.52;4.20;;;;;;;-1.69;62.77;99856.28;6079610;23;20049;-76
2022/01/10 08:52:29;;;;;;;8.32;4.05;;;;;;;-1.58;62.70;99869.50;6100847;23;20563;-78
2022/01/10 08:54:55;;;;;;;9.48;4.57;;;;;;;-1.57;63.08;99879.75;6094568;23;20041;-79
2022/01/10 08:57:21;;;;;;;7.85;4.35;;;;;;;-1.48;63.02;99876.69;6096725;23;20014;-78
2022/01/10 08:59:46;;;;;;;9.20;4.72;;;;;;;-1.56;62.77;99848.31;6071735;23;20046;-78
2022/01/10 09:02:13;;;;;;;9.18;4.60;;;;;;;-1.34;62.75;99861.94;6096231;23;20022;-78
2022/01/10 09:04:40;;;;;;;9.90;4.38;;;;;;;-1.33;62.84;99853.47;6103626;23;20086;-79
2022/01/10 09:07:08;;;;;;;7.50;4.25;;;;;;;-1.25;62.48;99872.53;6116914;23;20022;-79
2022/01/10 09:09:35;;;;;;;8.93;4.20;;;;;;;-1.41;63.16;99875.25;6103067;23;20025;-77
2022/01/10 09:12:01;;;;;;;7.18;4.47;;;;;;;-1.43;63.22;99843.69;6094888;23;20024;-80
2022/01/10 09:14:27;;;;;;;6.95;4.15;;;;;;;-1.32;63.12;99842.44;6094274;23;20026;-79
2022/01/10 09:16:53;;;;;;;7.90;4.47;;;;;;;-1.26;62.56;99847.81;6069800;23;20077;-81
2022/01/10 09:19:19;;;;;;;8.38;3.85;;;;;;;-1.19;62.55;99854.03;6093933;23;20036;-82
2022/01/10 09:21:45;;;;;;;6.88;3.92;;;;;;;-1.28;63.00;99843.44;6093422;23;20033;-76
2022/01/10 09:24:11;;;;;;;11.38;4.20;;;;;;;-1.17;62.57;99865.19;6045983;23;20022;-82
2022/01/10 09:26:37;;;;;;;7.18;4.13;;;;;;;-1.23;62.70;99876.03;6093876;23;20026;-80
2022/01/10 09:29:03;;;;;;;9.80;4.43;;;;;;;-1.23;62.84;99868.38;6094767;23;20527;-80
2022/01/10 09:31:33;;;;;;;8.40;3.58;;;;;;;-1.24;62.41;99851.31;6070782;23;20046;-78
2022/01/10 09:34:00;;;;;;;7.50;3.45;;;;;;;-1.27;62.21;99847.72;6069972;23;20105;-77
2022/01/10 09:36:29;;;;;;;6.85;3.40;;;;;;;-1.19;61.98;99865.91;6094593;23;20384;-80
2022/01/10 09:38:57;;;;;;;5.53;3.65;;;;;;;-1.38;61.63;99853.31;6098019;23;20018;-77
2022/01/10 09:41:24;;;;;;;5.30;2.80;;;;;;;-1.28;62.29;99871.53;6099963;23;20025;-78
2022/01/10 09:44:00;;;;;;;5.80;2.90;;;;;;;-1.64;61.53;99801.19;6097337;23;20097;-81
2022/01/10 09:46:28;;;;;;;7.50;3.15;;;;;;;-1.23;62.06;99868.38;6095823;23;20057;-77
2022/01/10 09:48:57;;;;;;;6.93;3.33;;;;;;;-1.28;61.83;99869.84;6074067;23;20022;-77
2022/01/10 09:51:26;;;;;;;5.90;2.95;;;;;;;-1.42;61.66;99845.44;6076863;23;20037;-80
2022/01/10 09:53:54;;;;;;;6.60;3.30;;;;;;;-1.20;62.53;99870.16;6070436;23;20046;-82
2022/01/10 09:56:20;;;;;;;7.93;3.05;;;;;;;-1.03;62.60;99875.06;6094188;23;20029;-81
2022/01/10 09:58:46;;;;;;;4.35;2.75;;;;;;;-1.01;62.01;99859.00;6097705;23;20087;-81
2022/01/10 10:01:22;;;;;;;6.85;2.80;;;;;;;-1.06;61.94;99848.56;6095437;23;20018;-84
2022/01/10 10:03:50;;;;;;;4.30;2.90;;;;;;;-1.14;61.16;99842.31;6071192;23;20022;-82
2022/01/10 10:06:17;;;;;;;5.55;3.25;;;;;;;-1.07;62.02;99838.31;6074763;23;20022;-82
2022/01/10 10:08:45;;;;;;;6.03;2.90;;;;;;;-0.99;61.62;99842.00;6097205;23;20022;-79
2022/01/10 10:11:12;;;;;;;5.20;2.75;;;;;;;-0.91;61.38;99863.63;6071918;23;20613;-79
2022/01/10 10:13:52;;;;;;;7.35;3.17;;;;;;;-0.91;61.63;99858.50;6095890;23;20069;-79
2022/01/10 10:16:18;;;;;;;5.13;2.75;;;;;;;-1.03;61.53;99845.28;6079676;23;20078;-78
2022/01/10 10:18:46;;;;;;;5.40;2.90;;;;;;;-0.94;61.30;99839.66;6091675;23;20019;-81
2022/01/10 10:21:17;;;;;;;5.20;2.55;;;;;;;-0.79;61.33;99857.25;6072823;23;20022;-82
2022/01/10 10:23:49;;;;;;;3.83;2.45;;;;;;;-0.92;60.85;99844.00;6074153;23;20026;-83
2022/01/10 10:26:17;;;;;;;4.70;2.83;;;;;;;-0.81;61.32;99854.63;6099946;23;20040;-81
2022/01/10 10:28:45;;;;;;;6.18;2.75;;;;;;;-0.88;61.10;99846.69;6099935;23;20018;-77
2022/01/10 10:31:13;;;;;;;4.68;2.55;;;;;;;-0.84;61.56;99849.41;6102426;23;20089;-81
2022/01/10 10:33:53;;;;;;;4.43;2.53;;;;;;;-0.78;61.09;99866.66;6106111;23;20025;-80
2022/01/10 10:36:19;;;;;;;4.57;2.50;;;;;;;-0.77;61.54;99868.38;6081253;23;20388;-79
2022/01/10 10:38:45;;;;;;;5.07;2.25;;;;;;;-0.66;61.39;99869.69;6053919;23;20014;-80
2022/01/10 10:41:12;;;;;;;4.32;2.53;;;;;;;-0.55;60.80;99874.34;6103213;23;20396;-80
2022/01/10 10:43:40;;;;;;;4.88;2.50;;;;;;;-0.95;61.28;99779.16;6077693;23;20022;-78
2022/01/10 10:46:16;;;;;;;6.25;3.08;;;;;;;-0.24;60.72;99872.88;6101253;23;20097;-80
2022/01/10 10:48:49;;;;;;;6.63;3.33;;;;;;;-0.31;61.52;99838.53;6098085;23;20029;-81
2022/01/10 10:51:15;;;;;;;5.57;2.58;;;;;;;-0.31;60.38;99824.06;6076607;23;20117;-79
2022/01/10 10:53:41;;;;;;;4.88;2.58;;;;;;;-0.12;60.43;99870.78;6099705;23;20069;-80
2022/01/10 10:56:08;;;;;;;5.45;2.85;;;;;;;-0.15;60.50;99875.78;6074974;23;20053;-78
2022/01/10 10:58:34;;;;;;;7.07;3.38;;;;;;;-0.30;60.66;99860.75;6049904;23;20022;-78
2022/01/10 11:01:02;;;;;;;5.70;2.90;;;;;;;-0.47;59.45;99860.13;6100732;23;20077;-79
2022/01/10 11:03:29;;;;;;;5.82;3.25;;;;;;;-0.47;60.00;99889.13;6102483;23;20025;-77
2022/01/10 11:05:59;;;;;;;7.82;3.40;;;;;;;-0.71;60.33;99860.97;6051471;23;20461;-79
2022/01/10 11:08:27;;;;;;;5.00;2.70;;;;;;;-0.79;60.49;99872.59;6099496;23;20014;-81
2022/01/10 11:10:54;;;;;;;5.85;2.95;;;;;;;-0.87;59.98;99877.38;6076399;23;20022;-79
2022/01/10 11:13:23;;;;;;;6.82;3.58;;;;;;;-1.11;60.21;99837.34;6103407;23;20025;-80
2022/01/10 11:15:49;;;;;;;3.65;2.60;;;;;;;-0.98;60.86;99856.53;6076588;23;20022;-75
2022/01/10 11:18:18;;;;;;;6.70;3.40;;;;;;;-1.43;60.29;99808.84;6099996;23;20053;-77
2022/01/10 11:20:53;;;;;;;4.90;2.90;;;;;;;-1.23;60.26;99873.47;6104706;23;20026;-79
2022/01/10 11:23:21;;;;;;;4.93;2.60;;;;;;;-1.44;60.22;99832.63;6104362;23;20018;-80
2022/01/10 11:25:47;;;;;;;4.78;2.90;;;;;;;-1.13;60.39;99869.59;6087074;23;20479;-80
2022/01/10 11:28:26;;;;;;;4.32;2.67;;;;;;;-1.43;60.23;99833.47;6120726;23;20029;-76
2022/01/10 11:30:56;;;;;;;5.35;3.33;;;;;;;-1.40;60.54;99838.72;6093709;23;20030;-80
2022/01/10 11:33:26;;;;;;;5.93;2.97;;;;;;;-1.27;59.95;99880.94;6087580;23;20022;-79
2022/01/10 11:35:54;;;;;;;4.47;2.30;;;;;;;-1.38;60.19;99883.94;6088192;23;20022;-80
2022/01/10 11:38:48;;;;;;;5.78;2.85;;;;;;;-1.52;59.32;99883.38;6090408;23;20014;-76
2022/01/10 11:41:23;;;;;;;4.57;2.53;;;;;;;-1.47;60.60;99878.44;6083240;23;20022;-77
2022/01/10 11:44:09;;;;;;;6.25;3.42;;;;;;;-1.55;61.10;99856.84;6080548;23;20107;-81
2022/01/10 11:46:44;;;;;;;10.52;4.35;;;;;;;-1.65;60.00;99865.78;6099714;23;20073;-78
2022/01/10 11:49:10;;;;;;;6.03;3.30;;;;;;;-1.43;61.22;99889.63;6076428;23;20416;-78